createdAt,value
2017-04-25T00:00:27.713Z,6.82
2017-04-25T00:01:27.005Z,10.17
2017-04-25T00:02:26.256Z,7.88
2017-04-25T00:03:26.581Z,5.88
2017-04-25T00:04:26.594Z,8.87
2017-04-25T00:05:26.188Z,7.15
2017-04-25T00:06:25.465Z,6.60
2017-04-25T00:07:25.798Z,8.18
2017-04-25T00:09:30.644Z,9.67
2017-04-25T00:10:30.361Z,8.18
2017-04-25T00:11:30.357Z,7.63
2017-04-25T00:12:30.892Z,7.47
2017-04-25T00:13:30.145Z,7.35
2017-04-25T00:14:29.525Z,10.00
2017-04-25T00:15:28.799Z,7.93
2017-04-25T00:16:28.782Z,12.80
2017-04-25T00:17:28.029Z,6.45
2017-04-25T00:18:27.257Z,6.65
2017-04-25T00:19:26.506Z,8.27
2017-04-25T00:20:26.233Z,7.42
2017-04-25T00:21:26.250Z,7.83
2017-04-25T00:22:26.160Z,12.97
2017-04-25T00:23:25.392Z,8.25
2017-04-25T00:24:25.373Z,8.43
2017-04-25T00:25:24.632Z,8.78
2017-04-25T00:26:23.874Z,8.78
2017-04-25T00:27:23.133Z,8.43
2017-04-25T00:28:22.366Z,7.05
2017-04-25T00:29:21.949Z,6.30
2017-04-25T00:30:21.188Z,9.97
2017-04-25T00:31:20.432Z,7.42
2017-04-25T00:32:20.420Z,8.65
2017-04-25T00:33:19.722Z,7.75
2017-04-25T00:34:19.707Z,8.18
2017-04-25T00:35:18.955Z,9.20
2017-04-25T00:36:18.249Z,5.83
2017-04-25T00:37:17.539Z,8.53
2017-04-25T00:38:17.117Z,8.80
2017-04-25T00:39:16.733Z,7.33
2017-04-25T00:40:16.729Z,8.02
2017-04-25T00:41:15.957Z,9.77
2017-04-25T00:42:15.194Z,11.83
2017-04-25T00:43:14.441Z,6.92
2017-04-25T00:44:13.680Z,9.30
2017-04-25T00:45:12.960Z,10.00
2017-04-25T00:46:12.912Z,12.08
2017-04-25T00:47:12.541Z,10.65
2017-04-25T00:48:11.773Z,8.93
2017-04-25T00:49:11.013Z,9.40
2017-04-25T00:50:10.256Z,7.68
2017-04-25T00:51:09.549Z,9.72
2017-04-25T00:52:09.493Z,8.68
2017-04-25T00:53:08.728Z,7.38
2017-04-25T00:54:08.197Z,7.17
2017-04-25T00:55:08.407Z,9.53
2017-04-25T00:56:07.688Z,4.35
2017-04-25T00:57:06.955Z,4.40
2017-04-25T00:58:06.529Z,7.15
2017-04-25T00:59:05.782Z,3.88
2017-04-25T01:00:06.106Z,4.35
2017-04-25T01:01:05.376Z,6.02
2017-04-25T01:02:05.253Z,5.97
2017-04-25T01:03:04.865Z,7.17
2017-04-25T01:04:04.097Z,5.80
2017-04-25T01:05:03.701Z,6.05
2017-04-25T01:06:03.171Z,4.30
2017-04-25T01:07:03.102Z,5.65
2017-04-25T01:08:02.678Z,8.75
2017-04-25T01:09:02.685Z,4.63
2017-04-25T01:10:01.918Z,5.62
2017-04-25T01:11:01.905Z,2.90
2017-04-25T01:12:01.164Z,4.08
2017-04-25T01:13:00.412Z,3.93
2017-04-25T01:13:59.660Z,2.42
2017-04-25T01:14:58.942Z,2.60
2017-04-25T01:15:58.206Z,2.45
2017-04-25T01:16:57.780Z,2.30
2017-04-25T01:17:57.362Z,3.47
2017-04-25T01:18:57.197Z,3.13
2017-04-25T01:19:56.446Z,2.37
2017-04-25T01:20:55.723Z,3.23
2017-04-25T01:21:55.293Z,3.38
2017-04-25T01:22:55.625Z,2.13
2017-04-25T01:23:56.029Z,3.37
2017-04-25T01:24:56.013Z,1.80
2017-04-25T01:25:55.276Z,3.67
2017-04-25T01:26:54.525Z,2.75
2017-04-25T01:27:54.522Z,2.33
2017-04-25T01:28:53.780Z,2.97
2017-04-25T01:29:53.356Z,2.87
2017-04-25T01:30:52.580Z,2.47
2017-04-25T01:31:51.862Z,2.55
2017-04-25T01:32:51.664Z,2.80
2017-04-25T01:33:51.249Z,2.43
2017-04-25T01:34:50.493Z,2.68
2017-04-25T01:35:50.572Z,6.68
2017-04-25T01:36:49.812Z,2.77
2017-04-25T01:37:49.313Z,2.50
2017-04-25T01:38:49.241Z,3.87
2017-04-25T01:39:49.273Z,2.80
2017-04-25T01:40:49.637Z,2.93
2017-04-25T01:41:48.885Z,2.52
2017-04-25T01:42:49.246Z,2.07
2017-04-25T01:43:48.709Z,2.83
2017-04-25T01:44:47.984Z,3.05
2017-04-25T01:45:47.557Z,1.88
2017-04-25T01:46:47.221Z,3.42
2017-04-25T01:47:46.810Z,2.25
2017-04-25T01:48:46.077Z,3.35
2017-04-25T01:49:46.061Z,2.58
2017-04-25T01:50:45.296Z,2.18
2017-04-25T01:51:44.873Z,2.25
2017-04-25T01:52:45.253Z,2.13
2017-04-25T01:53:44.477Z,2.33
2017-04-25T01:54:43.735Z,3.48
2017-04-25T01:55:42.974Z,2.82
2017-04-25T01:56:42.551Z,2.43
2017-04-25T01:57:42.881Z,1.32
2017-04-25T01:58:42.121Z,2.85
2017-04-25T01:59:41.384Z,3.37
2017-04-25T02:00:41.008Z,2.18
2017-04-25T02:01:40.281Z,4.05
2017-04-25T02:02:39.880Z,4.05
2017-04-25T02:03:39.809Z,2.02
2017-04-25T02:04:39.393Z,1.83
2017-04-25T02:05:38.647Z,2.60
2017-04-25T02:06:38.133Z,1.73
2017-04-25T02:07:37.716Z,3.43
2017-04-25T02:08:36.965Z,1.98
2017-04-25T02:09:36.218Z,1.67
2017-04-25T02:10:35.490Z,2.87
2017-04-25T02:11:35.074Z,2.25
2017-04-25T02:12:35.661Z,2.40
2017-04-25T02:13:35.598Z,1.60
2017-04-25T02:14:35.578Z,2.80
2017-04-25T02:15:34.808Z,2.75
2017-04-25T02:16:35.461Z,1.92
2017-04-25T02:17:35.057Z,2.75
2017-04-25T02:18:34.954Z,4.33
2017-04-25T02:19:34.184Z,2.33
2017-04-25T02:20:33.752Z,2.63
2017-04-25T02:21:33.345Z,3.37
2017-04-25T02:22:32.586Z,4.13
2017-04-25T02:23:32.149Z,3.25
2017-04-25T02:24:31.761Z,3.92
2017-04-25T02:25:30.996Z,3.70
2017-04-25T02:26:30.974Z,6.62
2017-04-25T02:27:30.681Z,2.10
2017-04-25T02:28:30.665Z,3.25
2017-04-25T02:29:29.900Z,2.83
2017-04-25T02:30:29.505Z,3.63
2017-04-25T02:31:29.418Z,5.20
2017-04-25T02:32:28.641Z,4.80
2017-04-25T02:33:27.870Z,4.57
2017-04-25T02:34:27.873Z,2.27
2017-04-25T02:35:27.844Z,2.58
2017-04-25T02:36:27.114Z,15.90
2017-04-25T02:37:26.689Z,3.52
2017-04-25T02:38:25.921Z,3.38
2017-04-25T02:39:25.495Z,4.32
2017-04-25T02:40:25.432Z,3.98
2017-04-25T02:41:24.660Z,3.42
2017-04-25T02:42:24.269Z,3.30
2017-04-25T02:43:23.500Z,3.32
2017-04-25T02:44:22.729Z,2.92
2017-04-25T02:45:23.709Z,4.65
2017-04-25T02:46:24.053Z,3.27
2017-04-25T02:47:23.301Z,4.10
2017-04-25T02:48:22.909Z,4.45
2017-04-25T02:49:22.621Z,5.45
2017-04-25T02:50:21.913Z,4.83
2017-04-25T02:51:21.893Z,3.95
2017-04-25T02:52:21.128Z,4.47
2017-04-25T02:53:20.361Z,4.55
2017-04-25T02:54:19.645Z,8.13
2017-04-25T02:55:18.874Z,4.10
2017-04-25T02:56:18.112Z,6.20
2017-04-25T02:57:18.101Z,3.47
2017-04-25T02:58:18.490Z,6.52
2017-04-25T02:59:18.313Z,4.38
2017-04-25T03:00:17.901Z,5.20
2017-04-25T03:01:17.144Z,3.85
2017-04-25T03:02:16.385Z,4.23
2017-04-25T03:03:15.700Z,4.00
2017-04-25T03:04:16.018Z,5.45
2017-04-25T03:05:16.342Z,5.72
2017-04-25T03:06:15.628Z,4.48
2017-04-25T03:07:14.864Z,4.45
2017-04-25T03:08:14.785Z,4.23
2017-04-25T03:09:14.668Z,4.23
2017-04-25T03:10:13.889Z,8.07
2017-04-25T03:11:13.132Z,4.30
2017-04-25T03:12:12.396Z,5.77
2017-04-25T03:13:12.381Z,6.62
2017-04-25T03:14:11.965Z,4.03
2017-04-25T03:15:11.789Z,4.02
2017-04-25T03:16:11.817Z,7.33
2017-04-25T03:17:11.467Z,3.93
2017-04-25T03:18:10.801Z,4.07
2017-04-25T03:19:10.093Z,4.43
2017-04-25T03:20:10.069Z,4.05
2017-04-25T03:21:09.301Z,5.83
2017-04-25T03:22:08.887Z,4.67
2017-04-25T03:23:08.130Z,4.83
2017-04-25T03:24:07.729Z,9.53
2017-04-25T03:25:06.952Z,3.87
2017-04-25T03:26:07.368Z,5.28
2017-04-25T03:27:10.381Z,3.90
2017-04-25T03:28:09.617Z,7.53
2017-04-25T03:29:08.870Z,4.57
2017-04-25T03:30:08.100Z,4.42
2017-04-25T03:31:08.069Z,7.22
2017-04-25T03:32:07.565Z,4.18
2017-04-25T03:33:07.604Z,6.18
2017-04-25T03:34:06.820Z,5.33
2017-04-25T03:35:09.908Z,4.77
2017-04-25T03:36:09.938Z,6.88
2017-04-25T03:37:09.171Z,5.55
2017-04-25T03:38:17.472Z,3.93
2017-04-25T03:39:18.183Z,4.17
2017-04-25T03:40:17.463Z,4.38
2017-04-25T03:41:17.425Z,4.63
2017-04-25T03:42:16.658Z,5.12
2017-04-25T03:43:16.232Z,5.03
2017-04-25T03:44:15.802Z,4.07
2017-04-25T03:45:15.389Z,5.63
2017-04-25T03:46:14.656Z,4.00
2017-04-25T03:47:14.256Z,4.02
2017-04-25T03:48:13.508Z,2.77
2017-04-25T03:49:13.550Z,6.55
2017-04-25T03:50:14.185Z,4.32
2017-04-25T03:51:13.812Z,4.75
2017-04-25T03:52:13.104Z,5.02
2017-04-25T03:53:12.353Z,5.92
2017-04-25T03:54:11.606Z,5.75
2017-04-25T03:55:11.202Z,5.92
2017-04-25T03:56:10.456Z,7.77
2017-04-25T03:57:10.815Z,5.78
2017-04-25T03:58:10.429Z,6.42
2017-04-25T03:59:10.025Z,4.80
2017-04-25T04:00:09.643Z,4.30
2017-04-25T04:01:08.905Z,4.72
2017-04-25T04:02:10.036Z,5.10
2017-04-25T04:03:09.341Z,4.68
2017-04-25T04:04:08.745Z,5.27
2017-04-25T04:05:08.641Z,5.42
2017-04-25T04:06:08.256Z,5.28
2017-04-25T04:07:08.137Z,6.28
2017-04-25T04:08:08.132Z,6.57
2017-04-25T04:09:07.376Z,8.52
2017-04-25T04:10:07.406Z,6.22
2017-04-25T04:11:07.014Z,6.37
2017-04-25T04:12:06.273Z,4.45
2017-04-25T04:13:05.880Z,5.23
2017-04-25T04:14:05.817Z,4.72
2017-04-25T04:15:05.745Z,4.50
2017-04-25T04:16:05.025Z,6.52
2017-04-25T04:17:11.897Z,5.37
2017-04-25T04:18:11.153Z,5.77
2017-04-25T04:19:10.409Z,8.20
2017-04-25T04:20:10.747Z,4.87
2017-04-25T04:21:10.384Z,5.87
2017-04-25T04:22:09.856Z,4.13
2017-04-25T04:23:09.113Z,3.65
2017-04-25T04:24:10.345Z,6.00
2017-04-25T04:25:10.413Z,4.67
2017-04-25T04:26:10.292Z,5.32
2017-04-25T04:27:09.575Z,6.95
2017-04-25T04:28:08.833Z,4.65
2017-04-25T04:29:08.374Z,6.02
2017-04-25T04:30:07.633Z,5.07
2017-04-25T04:31:07.635Z,6.50
2017-04-25T04:32:07.635Z,7.47
2017-04-25T04:33:07.653Z,8.38
2017-04-25T04:34:08.516Z,4.78
2017-04-25T04:35:07.802Z,6.48
2017-04-25T04:36:07.425Z,5.45
2017-04-25T04:37:06.673Z,7.73
2017-04-25T04:38:05.924Z,5.22
2017-04-25T04:39:05.657Z,12.07
2017-04-25T04:40:09.065Z,7.08
2017-04-25T04:41:11.501Z,9.33
2017-04-25T04:42:11.472Z,4.38
2017-04-25T04:43:10.713Z,5.95
2017-04-25T04:44:09.971Z,5.13
2017-04-25T04:45:09.210Z,5.93
2017-04-25T04:46:09.148Z,3.93
2017-04-25T04:47:08.481Z,5.25
2017-04-25T04:48:07.717Z,6.07
2017-04-25T04:49:08.238Z,6.08
2017-04-25T04:50:08.256Z,4.80
2017-04-25T04:51:07.863Z,5.48
2017-04-25T04:52:08.130Z,7.13
2017-04-25T04:53:07.373Z,8.12
2017-04-25T04:54:06.608Z,5.78
2017-04-25T04:55:05.853Z,5.50
2017-04-25T04:56:05.125Z,5.02
2017-04-25T04:57:04.816Z,7.35
2017-04-25T04:58:04.592Z,4.80
2017-04-25T04:59:03.869Z,6.32
2017-04-25T05:00:03.233Z,5.55
2017-04-25T05:01:03.232Z,5.05
2017-04-25T05:02:02.537Z,7.45
2017-04-25T05:03:02.525Z,7.07
2017-04-25T05:04:01.778Z,6.35
2017-04-25T05:05:01.033Z,6.12
2017-04-25T05:06:01.321Z,7.55
2017-04-25T05:07:01.947Z,7.22
2017-04-25T05:08:01.256Z,5.53
2017-04-25T05:09:02.416Z,8.93
2017-04-25T05:10:01.672Z,6.92
2017-04-25T05:11:01.300Z,5.68
2017-04-25T05:12:01.126Z,7.05
2017-04-25T05:13:01.875Z,6.02
2017-04-25T05:14:01.866Z,5.28
2017-04-25T05:15:03.862Z,7.92
2017-04-25T05:16:04.210Z,6.13
2017-04-25T05:17:03.544Z,8.58
2017-04-25T05:18:03.207Z,7.43
2017-04-25T05:19:02.688Z,4.83
2017-04-25T05:20:01.934Z,6.53
2017-04-25T05:21:01.526Z,7.37
2017-04-25T05:22:01.113Z,7.28
2017-04-25T05:23:00.944Z,6.67
2017-04-25T05:24:00.993Z,6.18
2017-04-25T05:25:00.233Z,5.95
2017-04-25T05:25:59.464Z,6.10
2017-04-25T05:26:58.704Z,8.45
2017-04-25T05:27:58.285Z,7.23
2017-04-25T05:28:57.520Z,6.02
2017-04-25T05:29:57.534Z,7.15
2017-04-25T05:30:57.130Z,7.50
2017-04-25T05:31:56.365Z,5.12
2017-04-25T05:32:55.609Z,6.05
2017-04-25T05:33:54.848Z,5.73
2017-04-25T05:34:54.094Z,6.33
2017-04-25T05:35:53.360Z,7.20
2017-04-25T05:36:54.032Z,7.30
2017-04-25T05:37:53.271Z,5.55
2017-04-25T05:38:53.315Z,5.78
2017-04-25T05:39:52.628Z,6.27
2017-04-25T05:40:51.914Z,5.58
2017-04-25T05:41:51.188Z,8.15
2017-04-25T05:42:50.785Z,5.28
2017-04-25T05:43:50.028Z,7.62
2017-04-25T05:44:49.280Z,7.23
2017-04-25T05:45:48.860Z,7.02
2017-04-25T05:46:48.460Z,7.20
2017-04-25T05:47:47.722Z,6.83
2017-04-25T05:48:48.269Z,6.48
2017-04-25T05:49:47.489Z,6.53
2017-04-25T05:50:47.113Z,6.45
2017-04-25T05:51:47.365Z,5.58
2017-04-25T05:52:46.914Z,6.78
2017-04-25T05:53:46.138Z,6.85
2017-04-25T05:54:45.700Z,6.40
2017-04-25T05:55:44.916Z,6.80
2017-04-25T05:56:44.482Z,7.05
2017-04-25T05:57:43.697Z,6.50
2017-04-25T05:58:44.030Z,7.00
2017-04-25T05:59:43.598Z,6.68
2017-04-25T06:00:43.904Z,7.10
2017-04-25T06:01:43.466Z,6.83
2017-04-25T06:02:42.717Z,8.70
2017-04-25T06:03:41.936Z,5.85
2017-04-25T06:04:41.211Z,6.60
2017-04-25T06:05:40.673Z,5.13
2017-04-25T06:06:39.889Z,7.52
2017-04-25T06:07:39.116Z,5.65
2017-04-25T06:08:38.341Z,5.75
2017-04-25T06:09:38.304Z,6.02
2017-04-25T06:10:37.555Z,5.53
2017-04-25T06:11:37.125Z,5.22
2017-04-25T06:12:36.347Z,4.87
2017-04-25T06:13:35.563Z,4.83
2017-04-25T06:14:35.140Z,4.42
2017-04-25T06:15:34.760Z,5.05
2017-04-25T06:16:34.021Z,3.75
2017-04-25T06:17:33.253Z,5.65
2017-04-25T06:18:32.476Z,3.80
2017-04-25T06:19:32.057Z,6.17
2017-04-25T06:20:31.628Z,3.28
2017-04-25T06:21:30.900Z,5.35
2017-04-25T06:22:30.497Z,5.40
2017-04-25T06:23:30.065Z,4.93
2017-04-25T06:24:30.413Z,3.33
2017-04-25T06:25:29.646Z,3.65
2017-04-25T06:26:28.873Z,4.32
2017-04-25T06:27:28.439Z,5.43
2017-04-25T06:28:28.444Z,3.55
2017-04-25T06:29:28.786Z,3.88
2017-04-25T06:30:28.713Z,3.25
2017-04-25T06:31:28.625Z,3.73
2017-04-25T06:32:27.862Z,4.92
2017-04-25T06:33:27.092Z,6.17
2017-04-25T06:34:26.386Z,4.47
2017-04-25T06:35:25.620Z,4.07
2017-04-25T06:36:24.851Z,3.65
2017-04-25T06:37:24.166Z,3.97
2017-04-25T06:38:23.392Z,3.08
2017-04-25T06:39:22.625Z,8.18
2017-04-25T06:40:21.880Z,2.83
2017-04-25T06:41:21.852Z,3.02
2017-04-25T06:42:21.426Z,3.88
2017-04-25T06:43:20.652Z,3.47
2017-04-25T06:44:19.889Z,3.53
2017-04-25T06:45:19.465Z,2.28
2017-04-25T06:46:19.467Z,2.18
2017-04-25T06:47:22.178Z,4.20
2017-04-25T06:48:21.438Z,2.50
2017-04-25T06:49:21.775Z,3.05
2017-04-25T06:50:21.033Z,2.35
2017-04-25T06:51:21.047Z,2.72
2017-04-25T06:52:21.032Z,2.88
2017-04-25T06:53:20.264Z,2.08
2017-04-25T06:54:19.521Z,3.05
2017-04-25T06:55:19.504Z,2.92
2017-04-25T06:56:18.753Z,2.62
2017-04-25T06:57:18.780Z,2.33
2017-04-25T06:58:18.037Z,6.10
2017-04-25T06:59:17.307Z,3.52
2017-04-25T07:00:17.648Z,4.45
2017-04-25T07:01:16.916Z,3.65
2017-04-25T07:02:17.237Z,1.67
2017-04-25T07:03:17.314Z,1.45
2017-04-25T07:04:16.921Z,1.72
2017-04-25T07:05:16.554Z,1.87
2017-04-25T07:06:15.812Z,1.98
2017-04-25T07:07:15.086Z,2.20
2017-04-25T07:08:14.692Z,4.57
2017-04-25T07:09:14.020Z,3.33
2017-04-25T07:10:13.268Z,4.53
2017-04-25T07:11:12.533Z,1.97
2017-04-25T07:12:11.781Z,2.75
2017-04-25T07:13:11.838Z,4.42
2017-04-25T07:14:11.111Z,2.20
2017-04-25T07:15:10.409Z,1.82
2017-04-25T07:16:09.668Z,3.13
2017-04-25T07:17:09.270Z,4.77
2017-04-25T07:18:09.238Z,1.95
2017-04-25T07:19:08.502Z,2.57
2017-04-25T07:20:08.517Z,3.12
2017-04-25T07:21:07.829Z,4.12
2017-04-25T07:22:07.424Z,2.15
2017-04-25T07:23:06.709Z,1.87
2017-04-25T07:24:05.969Z,8.68
2017-04-25T07:25:05.565Z,2.35
2017-04-25T07:26:05.182Z,3.63
2017-04-25T07:27:04.421Z,3.78
2017-04-25T07:28:05.160Z,2.75
2017-04-25T07:29:04.804Z,4.72
2017-04-25T07:30:04.767Z,2.32
2017-04-25T07:31:04.428Z,3.57
2017-04-25T07:32:04.385Z,3.93
2017-04-25T07:33:03.657Z,1.65
2017-04-25T07:34:03.260Z,2.13
2017-04-25T07:35:02.542Z,4.65
2017-04-25T07:36:01.852Z,5.13
2017-04-25T07:37:01.153Z,2.45
2017-04-25T07:38:00.401Z,4.32
2017-04-25T07:39:00.396Z,1.22
2017-04-25T07:40:00.396Z,4.22
2017-04-25T07:40:59.988Z,1.40
2017-04-25T07:41:59.237Z,6.65
2017-04-25T07:42:58.521Z,3.90
2017-04-25T07:43:57.768Z,3.98
2017-04-25T07:44:57.257Z,5.63
2017-04-25T07:45:56.505Z,3.22
2017-04-25T07:46:56.117Z,1.48
2017-04-25T07:47:55.405Z,4.15
2017-04-25T07:48:54.617Z,6.03
2017-04-25T07:49:54.206Z,3.13
2017-04-25T07:50:53.430Z,2.77
2017-04-25T07:51:53.740Z,4.05
2017-04-25T07:52:54.056Z,3.20
2017-04-25T07:53:54.476Z,3.17
2017-04-25T07:54:54.789Z,3.98
2017-04-25T07:55:55.093Z,3.37
2017-04-25T07:56:55.052Z,4.93
2017-04-25T07:57:54.972Z,4.82
2017-04-25T07:58:54.802Z,4.55
2017-04-25T07:59:54.410Z,12.20
2017-04-25T08:00:54.401Z,5.95
2017-04-25T08:01:53.634Z,7.70
2017-04-25T08:02:53.306Z,7.55
2017-04-25T08:03:52.838Z,19.87
2017-04-25T08:04:52.113Z,13.52
2017-04-25T08:05:51.352Z,14.53
2017-04-25T08:06:50.641Z,14.55
2017-04-25T08:07:49.870Z,17.32
2017-04-25T08:08:49.414Z,13.27
2017-04-25T08:09:49.013Z,22.87
2017-04-25T08:10:48.281Z,7.70
2017-04-25T08:11:47.517Z,4.90
2017-04-25T08:12:47.207Z,5.70
2017-04-25T08:13:46.457Z,18.32
2017-04-25T08:14:45.697Z,6.90
2017-04-25T08:15:44.944Z,15.87
2017-04-25T08:16:44.994Z,6.17
2017-04-25T08:17:44.250Z,6.45
2017-04-25T08:18:43.709Z,5.32
2017-04-25T08:19:42.994Z,4.28
2017-04-25T08:20:42.607Z,11.88
2017-04-25T08:21:41.841Z,8.17
2017-04-25T08:22:41.482Z,6.50
2017-04-25T08:23:40.997Z,8.92
2017-04-25T08:24:40.258Z,8.20
2017-04-25T08:25:39.910Z,6.08
2017-04-25T08:26:39.128Z,9.75
2017-04-25T08:27:38.719Z,5.18
2017-04-25T08:28:38.604Z,2.93
2017-04-25T08:29:37.846Z,5.98
2017-04-25T08:30:37.155Z,4.65
2017-04-25T08:31:36.396Z,4.30
2017-04-25T08:32:35.947Z,3.02
2017-04-25T08:33:35.189Z,3.53
2017-04-25T08:34:34.800Z,2.18
2017-04-25T08:35:35.125Z,4.60
2017-04-25T08:36:34.728Z,4.45
2017-04-25T08:37:33.985Z,2.85
2017-04-25T08:38:33.572Z,4.55
2017-04-25T08:39:33.466Z,3.13
2017-04-25T08:40:32.753Z,2.92
2017-04-25T08:41:32.409Z,3.10
2017-04-25T08:42:32.001Z,4.62
2017-04-25T08:43:31.245Z,3.40
2017-04-25T08:44:30.489Z,4.58
2017-04-25T08:45:29.740Z,3.07
2017-04-25T08:46:29.729Z,5.42
2017-04-25T08:47:29.613Z,5.07
2017-04-25T08:48:28.864Z,3.25
2017-04-25T08:49:28.854Z,2.57
2017-04-25T08:50:28.452Z,4.45
2017-04-25T08:51:28.053Z,4.47
2017-04-25T08:52:28.433Z,2.77
2017-04-25T08:53:27.904Z,3.80
2017-04-25T08:54:27.158Z,2.25
2017-04-25T08:55:27.410Z,1.62
2017-04-25T08:56:26.665Z,1.80
2017-04-25T08:57:26.787Z,4.30
2017-04-25T08:58:26.070Z,3.57
2017-04-25T08:59:26.069Z,3.15
2017-04-25T09:00:26.049Z,4.93
2017-04-25T09:01:25.297Z,2.05
2017-04-25T09:02:24.640Z,4.63
2017-04-25T09:03:23.885Z,6.40
2017-04-25T09:04:23.530Z,3.02
2017-04-25T09:05:23.109Z,1.83
2017-04-25T09:06:22.693Z,3.80
2017-04-25T09:07:21.957Z,1.95
2017-04-25T09:08:21.197Z,3.42
2017-04-25T09:09:20.440Z,2.75
2017-04-25T09:10:19.743Z,3.58
2017-04-25T09:11:19.006Z,2.32
2017-04-25T09:12:18.292Z,2.55
2017-04-25T09:13:18.269Z,2.85
2017-04-25T09:14:17.508Z,2.17
2017-04-25T09:15:17.101Z,4.15
2017-04-25T09:16:16.430Z,5.25
2017-04-25T09:17:16.434Z,3.90
2017-04-25T09:18:16.048Z,3.15
2017-04-25T09:19:15.311Z,3.57
2017-04-25T09:20:14.569Z,2.20
2017-04-25T09:21:13.813Z,3.15
2017-04-25T09:22:13.432Z,2.63
2017-04-25T09:23:13.429Z,4.15
2017-04-25T09:24:12.738Z,4.90
2017-04-25T09:25:12.729Z,4.70
2017-04-25T09:26:12.029Z,4.83
2017-04-25T09:27:12.018Z,5.15
2017-04-25T09:28:15.160Z,4.57
2017-04-25T09:29:14.404Z,1.82
2017-04-25T09:30:14.393Z,6.05
2017-04-25T09:31:13.694Z,4.12
2017-04-25T09:32:12.932Z,3.30
2017-04-25T09:33:12.512Z,2.32
2017-04-25T09:34:12.120Z,7.98
2017-04-25T09:35:11.746Z,3.17
2017-04-25T09:36:12.080Z,4.22
2017-04-25T09:37:11.344Z,4.58
2017-04-25T09:38:10.937Z,2.80
2017-04-25T09:39:10.185Z,1.73
2017-04-25T09:40:10.210Z,4.83
2017-04-25T09:41:09.465Z,2.77
2017-04-25T09:42:09.056Z,4.35
2017-04-25T09:43:08.305Z,5.07
2017-04-25T09:44:07.562Z,1.95
2017-04-25T09:45:08.255Z,2.97
2017-04-25T09:46:07.911Z,2.63
2017-04-25T09:47:07.544Z,3.85
2017-04-25T09:48:07.084Z,1.90
2017-04-25T09:49:06.674Z,2.63
2017-04-25T09:50:07.585Z,1.82
2017-04-25T09:51:06.878Z,3.60
2017-04-25T09:52:06.152Z,2.65
2017-04-25T09:53:06.351Z,2.27
2017-04-25T09:54:06.349Z,2.55
2017-04-25T09:55:05.941Z,3.85
2017-04-25T09:56:05.228Z,3.25
2017-04-25T09:57:04.824Z,3.35
2017-04-25T09:58:04.457Z,3.65
2017-04-25T09:59:03.736Z,2.13
2017-04-25T10:00:03.325Z,3.17
2017-04-25T10:01:03.333Z,5.27
2017-04-25T10:02:03.222Z,2.60
2017-04-25T10:03:02.517Z,1.83
2017-04-25T10:04:02.418Z,4.28
2017-04-25T10:05:01.680Z,4.50
2017-04-25T10:06:01.509Z,2.97
2017-04-25T10:07:00.775Z,3.70
2017-04-25T10:08:00.368Z,2.57
2017-04-25T10:09:00.300Z,2.92
2017-04-25T10:09:59.578Z,4.72
2017-04-25T10:10:59.169Z,3.73
2017-04-25T10:11:58.410Z,1.43
2017-04-25T10:12:57.678Z,1.75
2017-04-25T10:13:57.281Z,5.63
2017-04-25T10:14:56.647Z,2.73
2017-04-25T10:15:56.664Z,1.65
2017-04-25T10:16:55.912Z,3.27
2017-04-25T10:17:55.515Z,2.10
2017-04-25T10:18:54.764Z,1.13
2017-04-25T10:19:54.047Z,1.85
2017-04-25T10:20:54.077Z,1.13
2017-04-25T10:21:53.609Z,1.27
2017-04-25T10:22:53.972Z,3.47
2017-04-25T10:23:53.556Z,2.65
2017-04-25T10:24:52.788Z,2.60
2017-04-25T10:25:52.385Z,2.20
2017-04-25T10:26:52.012Z,1.68
2017-04-25T10:27:51.287Z,2.87
2017-04-25T10:28:51.285Z,2.68
2017-04-25T10:29:50.750Z,1.80
2017-04-25T10:30:50.253Z,2.45
2017-04-25T10:31:49.552Z,1.87
2017-04-25T10:32:48.797Z,3.43
2017-04-25T10:33:48.334Z,5.57
2017-04-25T10:34:47.593Z,3.85
2017-04-25T10:35:46.835Z,1.83
2017-04-25T10:36:46.430Z,2.40
2017-04-25T10:37:46.439Z,3.67
2017-04-25T10:38:46.448Z,2.40
2017-04-25T10:39:45.735Z,1.87
2017-04-25T10:40:44.985Z,3.50
2017-04-25T10:41:44.233Z,4.50
2017-04-25T10:42:44.221Z,3.48
2017-04-25T10:43:44.918Z,1.75
2017-04-25T10:44:44.512Z,1.78
2017-04-25T10:45:44.138Z,1.52
2017-04-25T10:46:43.704Z,1.83
2017-04-25T10:47:43.277Z,1.77
2017-04-25T10:48:42.509Z,2.85
2017-04-25T10:49:42.073Z,2.00
2017-04-25T10:50:41.342Z,3.13
2017-04-25T10:51:40.942Z,1.52
2017-04-25T10:52:40.296Z,2.07
2017-04-25T10:53:40.277Z,2.35
2017-04-25T10:54:39.506Z,2.43
2017-04-25T10:55:39.067Z,2.07
2017-04-25T10:56:38.310Z,3.17
2017-04-25T10:57:37.822Z,2.02
2017-04-25T10:58:37.046Z,3.17
2017-04-25T10:59:36.975Z,2.07
2017-04-25T11:00:37.230Z,2.57
2017-04-25T11:01:36.733Z,2.12
2017-04-25T11:02:35.954Z,1.90
2017-04-25T11:03:35.892Z,2.72
2017-04-25T11:04:36.437Z,2.25
2017-04-25T11:05:35.666Z,2.80
2017-04-25T11:06:35.236Z,2.73
2017-04-25T11:07:35.130Z,2.80
2017-04-25T11:08:34.668Z,5.97
2017-04-25T11:09:34.273Z,1.92
2017-04-25T11:10:33.500Z,3.15
2017-04-25T11:11:32.730Z,2.92
2017-04-25T11:12:33.043Z,2.55
2017-04-25T11:13:32.270Z,1.78
2017-04-25T11:14:32.584Z,3.07
2017-04-25T11:15:33.680Z,2.02
2017-04-25T11:16:33.008Z,3.98
2017-04-25T11:17:32.585Z,2.35
2017-04-25T11:18:31.812Z,3.90
2017-04-25T11:19:31.653Z,1.83
2017-04-25T11:20:30.937Z,4.47
2017-04-25T11:21:30.204Z,6.87
2017-04-25T11:22:29.444Z,3.47
2017-04-25T11:23:28.668Z,2.53
2017-04-25T11:24:28.204Z,1.93
2017-04-25T11:25:27.789Z,1.83
2017-04-25T11:26:27.028Z,5.00
2017-04-25T11:27:26.320Z,2.40
2017-04-25T11:28:26.301Z,2.13
2017-04-25T11:29:26.196Z,2.57
2017-04-25T11:30:25.693Z,2.12
2017-04-25T11:31:24.945Z,2.22
2017-04-25T11:32:24.170Z,1.90
2017-04-25T11:33:23.849Z,3.13
2017-04-25T11:34:23.432Z,2.80
2017-04-25T11:35:22.995Z,2.17
2017-04-25T11:36:22.552Z,2.05
2017-04-25T11:37:21.764Z,1.68
2017-04-25T11:38:20.977Z,2.92
2017-04-25T11:39:20.979Z,2.50
2017-04-25T11:40:21.734Z,2.35
2017-04-25T11:41:21.019Z,3.47
2017-04-25T11:42:20.884Z,2.18
2017-04-25T11:43:20.165Z,3.65
2017-04-25T11:44:19.426Z,2.50
2017-04-25T11:45:18.685Z,2.40
2017-04-25T11:46:19.226Z,1.95
2017-04-25T11:47:18.489Z,4.22
2017-04-25T11:48:18.512Z,2.00
2017-04-25T11:49:17.785Z,1.90
2017-04-25T11:50:17.768Z,1.87
2017-04-25T11:51:17.390Z,1.05
2017-04-25T11:52:17.364Z,1.12
2017-04-25T11:53:16.977Z,1.70
2017-04-25T11:54:16.721Z,1.55
2017-04-25T11:55:15.961Z,1.93
2017-04-25T11:56:15.528Z,2.68
2017-04-25T11:57:14.803Z,1.98
2017-04-25T11:58:14.274Z,1.77
2017-04-25T11:59:14.452Z,1.78
2017-04-25T12:00:16.867Z,2.40
2017-04-25T12:01:16.154Z,2.20
2017-04-25T12:02:15.705Z,1.97
2017-04-25T12:03:14.985Z,1.43
2017-04-25T12:04:14.228Z,1.33
2017-04-25T12:05:13.833Z,1.47
2017-04-25T12:06:13.477Z,2.27
2017-04-25T12:07:13.369Z,2.47
2017-04-25T12:08:12.857Z,2.65
2017-04-25T12:09:12.103Z,1.92
2017-04-25T12:10:12.448Z,1.80
2017-04-25T12:11:12.056Z,1.33
2017-04-25T12:12:11.748Z,0.70
2017-04-25T12:13:11.005Z,1.82
2017-04-25T12:14:11.041Z,1.62
2017-04-25T12:15:10.672Z,2.70
2017-04-25T12:16:09.962Z,1.25
2017-04-25T12:17:09.536Z,0.88
2017-04-25T12:18:09.125Z,0.90
2017-04-25T12:19:09.073Z,1.00
2017-04-25T12:20:08.409Z,2.02
2017-04-25T12:21:07.920Z,1.60
2017-04-25T12:22:07.597Z,1.75
2017-04-25T12:23:06.833Z,2.48
2017-04-25T12:24:06.416Z,1.80
2017-04-25T12:25:06.097Z,1.10
2017-04-25T12:26:06.025Z,2.12
2017-04-25T12:27:05.269Z,1.50
2017-04-25T12:28:05.596Z,2.17
2017-04-25T12:29:04.865Z,1.47
2017-04-25T12:30:05.200Z,1.60
2017-04-25T12:31:04.471Z,1.25
2017-04-25T12:32:05.181Z,2.78
2017-04-25T12:33:04.437Z,1.33
2017-04-25T12:34:03.678Z,2.23
2017-04-25T12:35:03.917Z,1.75
2017-04-25T12:36:03.155Z,3.70
2017-04-25T12:37:02.425Z,1.02
2017-04-25T12:38:01.953Z,1.42
2017-04-25T12:39:01.203Z,1.50
2017-04-25T12:40:00.452Z,1.37
2017-04-25T12:41:00.033Z,1.05
2017-04-25T12:41:59.314Z,0.80
2017-04-25T12:42:58.913Z,1.35
2017-04-25T12:43:58.193Z,0.90
2017-04-25T12:44:57.438Z,0.98
2017-04-25T12:45:56.685Z,1.38
2017-04-25T12:46:55.950Z,1.75
2017-04-25T12:47:55.544Z,0.87
2017-04-25T12:48:54.781Z,0.80
2017-04-25T12:49:55.128Z,1.58
2017-04-25T12:50:54.370Z,2.10
2017-04-25T12:51:53.605Z,2.32
2017-04-25T12:52:52.826Z,0.87
2017-04-25T12:53:52.097Z,1.87
2017-04-25T12:54:51.346Z,0.98
2017-04-25T12:55:51.341Z,0.83
2017-04-25T12:56:51.313Z,1.30
2017-04-25T12:57:50.925Z,0.50
2017-04-25T12:58:50.193Z,0.83
2017-04-25T12:59:49.430Z,1.13
2017-04-25T13:00:49.399Z,0.93
2017-04-25T13:01:48.740Z,2.62
2017-04-25T13:02:47.961Z,1.32
2017-04-25T13:03:47.695Z,2.82
2017-04-25T13:04:46.937Z,1.32
2017-04-25T13:05:46.516Z,1.97
2017-04-25T13:06:45.779Z,1.07
2017-04-25T13:07:45.028Z,1.32
2017-04-25T13:08:44.244Z,0.93
2017-04-25T13:09:43.817Z,1.10
2017-04-25T13:10:43.739Z,1.40
2017-04-25T13:11:43.174Z,1.13
2017-04-25T13:12:42.748Z,0.97
2017-04-25T13:13:42.418Z,1.30